Time;durP1;ratioP1;P1;durP2;ratioP2;P2;SDS_P1;SDS_P2;PMS_P1;PMS_P2;Temp;Humidity;BMP_temperature;BMP_pressure;BME280_temperature;BME280_humidity;BME280_pressure;Samples;Min_cycle;Max_cycle;Signal;HPM_P1;HPM_P2
2022/06/27 00:00:06;;;;;;;4.10;2.20;;;19.10;99.90;;;;;;4876537;29;20297;-53
2022/06/27 00:02:41;;;;;;;4.00;2.60;;;19.10;99.90;;;;;;4879985;29;20827;-54
2022/06/27 00:05:10;;;;;;;5.87;2.10;;;19.00;99.90;;;;;;4880395;29;20245;-53
2022/06/27 00:07:39;;;;;;;4.07;2.10;;;19.00;99.90;;;;;;4880344;29;20265;-52
2022/06/27 00:10:10;;;;;;;3.07;2.07;;;19.00;99.90;;;;;;4880471;29;20246;-53
2022/06/27 00:12:39;;;;;;;3.93;2.30;;;19.00;99.90;;;;;;4880080;29;20232;-53
2022/06/27 00:15:10;;;;;;;3.07;2.10;;;19.00;99.90;;;;;;4880582;29;20622;-52
2022/06/27 00:17:39;;;;;;;4.17;2.17;;;19.00;99.90;;;;;;4880313;29;20594;-53
2022/06/27 00:20:09;;;;;;;2.87;1.70;;;19.00;99.90;;;;;;4880477;29;20732;-53
2022/06/27 00:22:37;;;;;;;2.53;1.97;;;19.00;99.90;;;;;;4880258;29;20565;-52
2022/06/27 00:25:09;;;;;;;2.27;2.00;;;19.00;99.90;;;;;;4880496;29;20228;-53
2022/06/27 00:27:37;;;;;;;4.40;2.20;;;19.00;99.90;;;;;;4880309;29;20236;-52
2022/06/27 00:30:07;;;;;;;4.10;2.13;;;19.10;99.90;;;;;;4880123;29;20565;-53
2022/06/27 00:32:35;;;;;;;2.83;1.77;;;19.10;99.90;;;;;;4879498;29;20245;-52
2022/06/27 00:35:05;;;;;;;2.30;2.10;;;19.10;99.90;;;;;;4893520;29;20233;-53
2022/06/27 00:37:33;;;;;;;2.50;1.97;;;19.10;99.90;;;;;;4879794;29;20271;-52
2022/06/27 00:40:06;;;;;;;3.43;2.07;;;19.10;99.90;;;;;;4879792;29;20237;-52
2022/06/27 00:42:36;;;;;;;4.20;2.07;;;19.10;99.90;;;;;;4879372;29;20730;-52
2022/06/27 00:45:06;;;;;;;3.40;2.10;;;19.10;99.90;;;;;;4879469;29;20233;-54
2022/06/27 00:47:34;;;;;;;4.73;1.90;;;19.00;99.90;;;;;;4879618;29;20237;-53
2022/06/27 00:50:02;;;;;;;3.63;2.27;;;19.10;99.90;;;;;;4879529;29;20247;-53
2022/06/27 00:52:31;;;;;;;4.10;2.60;;;19.20;99.90;;;;;;4879825;29;20753;-53
2022/06/27 00:54:59;;;;;;;4.07;2.20;;;19.20;99.90;;;;;;4879672;29;20243;-53
2022/06/27 00:57:29;;;;;;;3.10;2.63;;;19.10;99.90;;;;;;4879727;29;20732;-54
2022/06/27 00:59:58;;;;;;;5.17;3.13;;;19.10;99.90;;;;;;4893984;29;20675;-50
2022/06/27 01:02:27;;;;;;;5.90;2.90;;;19.10;99.90;;;;;;4878915;29;20243;-50
2022/06/27 01:04:55;;;;;;;8.90;3.63;;;19.00;99.90;;;;;;4879402;29;20283;-51
2022/06/27 01:07:23;;;;;;;7.30;3.10;;;18.80;99.90;;;;;;4879300;29;20236;-52
2022/06/27 01:09:53;;;;;;;6.77;3.50;;;18.70;99.90;;;;;;4879471;29;20288;-53
2022/06/27 01:12:23;;;;;;;5.37;3.43;;;18.60;99.90;;;;;;4879085;29;20728;-53
2022/06/27 01:14:51;;;;;;;5.53;2.93;;;18.40;99.90;;;;;;4879329;29;20233;-53
2022/06/27 01:17:21;;;;;;;5.00;3.10;;;18.40;99.90;;;;;;4879281;29;20236;-53
2022/06/27 01:19:49;;;;;;;6.27;3.10;;;18.40;99.90;;;;;;4879224;29;20230;-53
2022/06/27 01:22:19;;;;;;;4.63;2.80;;;18.40;99.90;;;;;;4877763;29;20236;-52
2022/06/27 01:24:47;;;;;;;3.40;2.60;;;18.40;99.90;;;;;;4860954;29;20257;-53
2022/06/27 01:27:16;;;;;;;4.90;3.00;;;18.50;99.90;;;;;;4875940;29;20232;-53
2022/06/27 01:29:44;;;;;;;3.93;3.00;;;18.60;99.90;;;;;;4877800;29;20240;-50
2022/06/27 01:32:12;;;;;;;5.27;3.30;;;18.60;99.90;;;;;;4878645;29;20272;-52
2022/06/27 01:34:40;;;;;;;5.47;3.30;;;18.50;99.90;;;;;;4878805;29;20235;-51
2022/06/27 01:37:09;;;;;;;4.80;3.70;;;18.30;99.90;;;;;;4879023;29;20762;-51
2022/06/27 01:39:43;;;;;;;6.07;3.90;;;18.20;99.90;;;;;;4877267;29;20243;-53
2022/06/27 01:42:11;;;;;;;4.53;3.20;;;18.10;99.90;;;;;;4877619;29;20609;-52
2022/06/27 01:44:39;;;;;;;6.30;4.10;;;18.10;99.90;;;;;;4877229;29;20330;-52
2022/06/27 01:47:11;;;;;;;5.50;3.57;;;17.90;99.90;;;;;;4877717;29;20250;-49
2022/06/27 01:49:48;;;;;;;6.50;3.57;;;17.90;99.90;;;;;;4869823;29;20237;-52
2022/06/27 01:52:17;;;;;;;4.93;3.37;;;17.90;99.90;;;;;;4877701;29;20262;-50
2022/06/27 01:54:55;;;;;;;5.80;3.10;;;17.80;99.90;;;;;;4874613;29;20232;-53
2022/06/27 01:57:24;;;;;;;6.97;3.67;;;17.80;99.90;;;;;;4890741;29;20244;-53
2022/06/27 01:59:53;;;;;;;4.37;3.20;;;17.70;99.90;;;;;;4893195;29;20231;-52
2022/06/27 02:02:21;;;;;;;3.80;3.37;;;17.70;99.90;;;;;;4876873;29;20230;-50
2022/06/27 02:04:51;;;;;;;4.30;3.07;;;17.60;99.90;;;;;;4877377;29;20255;-53
2022/06/27 02:07:20;;;;;;;6.83;3.53;;;17.50;99.90;;;;;;4879031;29;20223;-49
2022/06/27 02:09:48;;;;;;;4.17;3.63;;;17.40;99.90;;;;;;4877559;29;20300;-52
2022/06/27 02:12:23;;;;;;;4.07;3.00;;;17.50;99.90;;;;;;4878519;29;20217;-52
2022/06/27 02:14:54;;;;;;;5.77;3.43;;;17.50;99.90;;;;;;4877493;29;20236;-52
2022/06/27 02:17:33;;;;;;;4.53;2.93;;;17.50;99.90;;;;;;4877286;29;20582;-53
2022/06/27 02:20:01;;;;;;;3.97;2.77;;;17.40;99.90;;;;;;4877306;29;20595;-53
2022/06/27 02:22:30;;;;;;;3.77;3.00;;;17.40;99.90;;;;;;4877200;29;20234;-49
2022/06/27 02:24:58;;;;;;;3.37;2.57;;;17.30;99.90;;;;;;4878943;29;20226;-54
2022/06/27 02:27:30;;;;;;;5.30;2.60;;;17.30;99.90;;;;;;4878297;29;20222;-52
2022/06/27 02:29:58;;;;;;;3.33;2.37;;;17.20;99.90;;;;;;4877416;29;20645;-50
2022/06/27 02:32:27;;;;;;;2.67;2.20;;;17.10;99.90;;;;;;4877984;29;20223;-53
2022/06/27 02:34:57;;;;;;;4.00;2.43;;;17.10;99.90;;;;;;4878428;29;20320;-51
2022/06/27 02:37:26;;;;;;;3.40;2.00;;;17.00;99.90;;;;;;4878396;29;20590;-52
2022/06/27 02:39:55;;;;;;;3.33;2.07;;;16.90;99.90;;;;;;4877233;29;20265;-53
2022/06/27 02:42:28;;;;;;;2.80;1.80;;;16.90;99.90;;;;;;4878110;29;20234;-50
2022/06/27 02:44:58;;;;;;;2.37;2.03;;;16.90;99.90;;;;;;4878443;29;20305;-54
2022/06/27 02:47:33;;;;;;;4.67;2.10;;;17.00;99.90;;;;;;4892468;29;20726;-52
2022/06/27 02:50:02;;;;;;;2.30;1.90;;;17.10;99.90;;;;;;4876821;29;20713;-54
2022/06/27 02:52:35;;;;;;;1.90;1.47;;;16.90;99.90;;;;;;4877061;29;20230;-52
2022/06/27 02:55:10;;;;;;;3.47;1.40;;;16.80;99.90;;;;;;4892777;29;20239;-52
2022/06/27 02:58:01;;;;;;;3.00;2.10;;;16.80;99.90;;;;;;4877394;29;20322;-52
2022/06/27 03:00:30;;;;;;;3.03;1.93;;;16.90;99.90;;;;;;4877300;29;20338;-53
2022/06/27 03:03:02;;;;;;;2.17;1.40;;;16.80;99.90;;;;;;4876908;29;20655;-51
2022/06/27 03:05:36;;;;;;;2.73;1.70;;;16.80;99.90;;;;;;4880727;29;20242;-53
2022/06/27 03:08:04;;;;;;;2.93;1.63;;;16.90;99.90;;;;;;4881893;29;20238;-53
2022/06/27 03:10:33;;;;;;;2.57;1.70;;;17.00;99.90;;;;;;4880126;29;20238;-51
2022/06/27 03:13:02;;;;;;;4.40;2.10;;;17.00;99.90;;;;;;4895215;29;20283;-53
2022/06/27 03:15:31;;;;;;;2.00;1.87;;;17.00;99.90;;;;;;4880079;29;20322;-52
2022/06/27 03:18:00;;;;;;;5.20;1.60;;;17.00;99.90;;;;;;4880102;29;20244;-54
2022/06/27 03:20:28;;;;;;;3.03;1.70;;;17.00;99.90;;;;;;4881154;29;20646;-52
2022/06/27 03:23:16;;;;;;;3.90;1.77;;;17.00;99.90;;;;;;4881212;29;20294;-52
2022/06/27 03:25:49;;;;;;;2.73;1.70;;;17.10;99.90;;;;;;4884910;29;20235;-54
2022/06/27 03:28:18;;;;;;;5.13;2.07;;;17.10;99.90;;;;;;4876829;29;20231;-54
2022/06/27 03:30:49;;;;;;;2.57;1.70;;;17.10;99.90;;;;;;4876757;29;20594;-51
2022/06/27 03:33:17;;;;;;;2.33;1.73;;;17.10;99.90;;;;;;4885475;29;20730;-53
2022/06/27 03:35:53;;;;;;;2.10;1.70;;;17.10;99.90;;;;;;4877074;29;20226;-53
2022/06/27 03:38:21;;;;;;;2.57;2.00;;;17.10;99.90;;;;;;4880976;29;20238;-54
2022/06/27 03:40:49;;;;;;;3.80;1.73;;;17.10;99.90;;;;;;4894932;29;20668;-53
2022/06/27 03:43:19;;;;;;;2.77;2.00;;;17.10;99.90;;;;;;4878964;29;20277;-54
2022/06/27 03:45:47;;;;;;;4.27;1.90;;;17.10;99.90;;;;;;4879418;29;20230;-53
2022/06/27 03:51:21;;;;;;;2.20;1.80;;;17.10;99.90;;;;;;4861900;29;20235;-51
2022/06/27 03:53:50;;;;;;;6.47;2.00;;;17.10;99.90;;;;;;4887752;29;20237;-53
2022/06/27 03:56:19;;;;;;;5.33;1.87;;;17.00;99.90;;;;;;4879513;29;20230;-53
2022/06/27 03:58:49;;;;;;;2.10;1.80;;;17.00;99.90;;;;;;4879287;29;20238;-54
2022/06/27 04:01:17;;;;;;;2.20;1.50;;;17.00;99.90;;;;;;4893743;29;20241;-54
2022/06/27 04:03:45;;;;;;;2.10;1.90;;;17.00;99.90;;;;;;4878914;29;20243;-54
2022/06/27 04:06:16;;;;;;;2.10;1.60;;;17.00;99.90;;;;;;4879350;29;20286;-52
2022/06/27 04:08:46;;;;;;;6.40;1.87;;;16.90;99.90;;;;;;4878164;29;20295;-52
2022/06/27 04:11:14;;;;;;;1.83;1.57;;;16.90;99.90;;;;;;4879055;29;20265;-53
2022/06/27 04:13:46;;;;;;;1.90;1.70;;;16.90;99.90;;;;;;4887371;29;20233;-55
2022/06/27 04:16:34;;;;;;;3.20;1.90;;;16.80;99.90;;;;;;4879493;29;20237;-53
2022/06/27 04:19:40;;;;;;;3.73;1.70;;;16.80;99.90;;;;;;4859266;29;20331;-52
2022/06/27 04:22:09;;;;;;;1.70;1.60;;;16.80;99.90;;;;;;4859692;29;20711;-52
2022/06/27 04:24:49;;;;;;;1.90;1.70;;;16.80;99.90;;;;;;4866232;29;20613;-54
2022/06/27 04:27:23;;;;;;;1.60;1.50;;;16.70;99.90;;;;;;4864087;29;20230;-53
2022/06/27 04:29:52;;;;;;;3.30;1.97;;;16.70;99.90;;;;;;4876106;29;20588;-53
2022/06/27 04:32:22;;;;;;;2.33;1.53;;;16.70;99.90;;;;;;4869638;29;20240;-53
2022/06/27 04:34:51;;;;;;;2.17;1.97;;;16.70;99.90;;;;;;4894297;29;20230;-54
2022/06/27 04:37:19;;;;;;;3.40;1.83;;;16.70;99.90;;;;;;4879991;29;20230;-53
2022/06/27 04:40:07;;;;;;;5.13;1.90;;;16.80;99.90;;;;;;4879845;29;20252;-53
2022/06/27 04:42:35;;;;;;;1.90;1.80;;;16.70;99.90;;;;;;4892776;29;20281;-53
2022/06/27 04:45:06;;;;;;;2.40;1.83;;;16.70;99.90;;;;;;4879805;29;20316;-53
2022/06/27 04:47:38;;;;;;;3.63;1.77;;;16.60;99.90;;;;;;4893936;29;20270;-54
2022/06/27 04:50:15;;;;;;;2.03;1.83;;;16.60;99.90;;;;;;4878514;29;20233;-54
2022/06/27 04:52:43;;;;;;;4.10;1.80;;;16.50;99.90;;;;;;4878243;29;20294;-53
2022/06/27 04:55:12;;;;;;;2.90;2.03;;;16.50;99.90;;;;;;4875515;29;20636;-55
2022/06/27 04:57:42;;;;;;;2.00;1.87;;;16.50;99.90;;;;;;4875158;29;20234;-49
2022/06/27 05:00:15;;;;;;;3.63;2.20;;;16.50;99.90;;;;;;4879401;29;20250;-52
2022/06/27 05:03:16;;;;;;;3.37;2.10;;;16.40;99.90;;;;;;4871051;29;20234;-53
2022/06/27 05:05:56;;;;;;;4.13;2.27;;;16.40;99.90;;;;;;4878312;29;20262;-52
2022/06/27 05:08:24;;;;;;;2.53;2.00;;;16.30;99.90;;;;;;4879492;29;20226;-53
2022/06/27 05:10:56;;;;;;;3.40;1.93;;;16.30;99.90;;;;;;4878049;29;20237;-53
2022/06/27 05:13:24;;;;;;;2.50;2.27;;;16.30;99.90;;;;;;4893513;29;20234;-52
2022/06/27 05:15:54;;;;;;;2.43;2.10;;;16.20;99.90;;;;;;4878040;29;20237;-54
2022/06/27 05:18:24;;;;;;;7.37;2.20;;;16.30;99.90;;;;;;4893543;29;20272;-52
2022/06/27 05:20:52;;;;;;;3.53;2.37;;;16.30;99.90;;;;;;4878835;29;20218;-53
2022/06/27 05:23:20;;;;;;;4.47;2.60;;;16.40;99.90;;;;;;4893470;29;20298;-54
2022/06/27 05:25:49;;;;;;;3.97;2.03;;;16.40;99.90;;;;;;4879400;29;20704;-52
2022/06/27 05:28:17;;;;;;;4.53;2.50;;;16.30;99.90;;;;;;4879188;29;20333;-54
2022/06/27 05:30:47;;;;;;;3.23;2.33;;;16.30;99.90;;;;;;4874195;29;20651;-55
2022/06/27 05:33:16;;;;;;;4.30;2.20;;;16.30;99.90;;;;;;4876985;29;20243;-55
2022/06/27 05:35:46;;;;;;;2.13;1.93;;;16.30;99.90;;;;;;4893271;29;20257;-53
2022/06/27 05:38:15;;;;;;;2.80;2.30;;;16.30;99.90;;;;;;4893421;29;20283;-52
2022/06/27 05:40:44;;;;;;;2.33;2.13;;;16.30;99.90;;;;;;4892855;29;20277;-53
2022/06/27 05:43:14;;;;;;;2.90;2.60;;;16.20;99.90;;;;;;4892661;29;20253;-53
2022/06/27 05:45:42;;;;;;;3.67;2.30;;;16.20;99.90;;;;;;4877325;29;20237;-54
2022/06/27 05:48:40;;;;;;;2.67;2.20;;;16.20;99.90;;;;;;4863978;29;20238;-54
2022/06/27 05:51:24;;;;;;;2.93;2.33;;;16.30;99.90;;;;;;4877439;29;20635;-54
2022/06/27 05:53:56;;;;;;;2.97;2.10;;;16.30;99.90;;;;;;4877708;29;20599;-54
2022/06/27 05:56:25;;;;;;;2.80;2.00;;;16.40;99.90;;;;;;4875692;29;20241;-54
2022/06/27 05:58:55;;;;;;;2.87;2.43;;;16.40;99.90;;;;;;4874737;29;20711;-54
2022/06/27 06:01:23;;;;;;;2.47;2.20;;;16.50;99.90;;;;;;4884931;29;20261;-54
2022/06/27 06:03:51;;;;;;;3.37;2.53;;;16.50;99.90;;;;;;4864685;29;20265;-53
2022/06/27 06:06:20;;;;;;;4.03;2.30;;;16.50;99.90;;;;;;4863920;29;20290;-55
2022/06/27 06:08:50;;;;;;;4.13;2.10;;;16.50;99.90;;;;;;4865047;29;20749;-53
2022/06/27 06:11:18;;;;;;;2.43;2.23;;;16.60;99.90;;;;;;4878024;29;20234;-54
2022/06/27 06:13:47;;;;;;;2.33;1.93;;;16.70;99.90;;;;;;4880418;29;20238;-51
2022/06/27 06:16:19;;;;;;;2.10;1.90;;;16.70;99.90;;;;;;4865412;29;20240;-54
2022/06/27 06:18:52;;;;;;;3.57;2.57;;;16.80;99.90;;;;;;4864843;29;20248;-54
2022/06/27 06:21:21;;;;;;;4.10;2.40;;;16.90;99.90;;;;;;4862957;29;20602;-53
2022/06/27 06:23:52;;;;;;;4.93;2.10;;;16.90;99.90;;;;;;4869165;29;20318;-53
2022/06/27 06:26:21;;;;;;;2.50;1.90;;;17.00;99.90;;;;;;4880263;29;20253;-54
2022/06/27 06:28:50;;;;;;;2.37;1.90;;;17.10;99.90;;;;;;4864951;29;20238;-53
2022/06/27 06:31:22;;;;;;;2.40;2.20;;;17.20;99.90;;;;;;4862096;29;20269;-53
2022/06/27 06:33:59;;;;;;;3.03;2.13;;;17.30;99.90;;;;;;4868097;29;20246;-52
2022/06/27 06:36:27;;;;;;;2.20;2.00;;;17.30;99.90;;;;;;4868388;29;20524;-53
2022/06/27 06:38:57;;;;;;;3.87;2.20;;;17.40;99.90;;;;;;4886224;29;20242;-50
2022/06/27 06:41:25;;;;;;;2.53;2.30;;;17.50;99.90;;;;;;4865772;29;20258;-54
2022/06/27 06:43:54;;;;;;;3.63;2.10;;;17.50;99.90;;;;;;4884137;29;21208;-53
2022/06/27 06:46:25;;;;;;;4.10;2.50;;;17.40;99.90;;;;;;4870169;29;20591;-53
2022/06/27 06:49:04;;;;;;;2.90;2.47;;;17.30;99.90;;;;;;4868233;29;20271;-53
2022/06/27 06:51:34;;;;;;;3.53;2.20;;;17.30;99.90;;;;;;4865829;29;20226;-52
2022/06/27 06:54:05;;;;;;;3.63;2.30;;;17.20;99.90;;;;;;4869745;29;20245;-51
2022/06/27 06:56:34;;;;;;;3.20;2.40;;;17.40;99.90;;;;;;4870592;29;20310;-52
2022/06/27 06:59:03;;;;;;;4.73;2.30;;;17.40;99.90;;;;;;4869709;29;20231;-54
2022/06/27 07:01:33;;;;;;;3.20;2.27;;;17.40;99.90;;;;;;4865985;29;20591;-53
2022/06/27 07:04:02;;;;;;;3.93;2.20;;;17.40;99.90;;;;;;4868877;29;20249;-51
2022/06/27 07:06:32;;;;;;;3.63;2.13;;;17.40;99.90;;;;;;4869371;29;20739;-50
2022/06/27 07:09:01;;;;;;;3.37;2.23;;;17.40;99.90;;;;;;4869127;29;20249;-53
2022/06/27 07:11:31;;;;;;;2.30;2.10;;;17.40;99.90;;;;;;4865585;29;20858;-52
2022/06/27 07:14:00;;;;;;;3.93;2.43;;;17.40;99.90;;;;;;4867930;29;20249;-52
2022/06/27 07:16:29;;;;;;;4.63;2.77;;;17.40;99.90;;;;;;4868796;29;20242;-52
2022/06/27 07:19:00;;;;;;;3.17;2.50;;;17.40;99.90;;;;;;4869244;29;20750;-52
2022/06/27 07:21:30;;;;;;;2.50;2.27;;;17.50;99.90;;;;;;4865245;29;20231;-52
2022/06/27 07:24:00;;;;;;;3.13;2.40;;;17.50;99.90;;;;;;4871022;29;20317;-53
2022/06/27 07:26:32;;;;;;;2.90;2.60;;;17.50;99.90;;;;;;4870676;29;21083;-52
2022/06/27 07:29:04;;;;;;;4.23;2.60;;;17.40;99.90;;;;;;4870981;29;20325;-53
2022/06/27 07:31:33;;;;;;;2.77;2.47;;;17.40;99.90;;;;;;4868576;29;20244;-51
2022/06/27 07:34:02;;;;;;;2.80;2.60;;;17.40;99.90;;;;;;4870167;29;20762;-52
2022/06/27 07:36:32;;;;;;;2.90;2.63;;;17.40;99.90;;;;;;4871106;29;20249;-51
2022/06/27 07:39:00;;;;;;;2.53;2.33;;;17.40;99.90;;;;;;4870949;29;20278;-52
2022/06/27 07:41:32;;;;;;;3.63;2.60;;;17.40;99.90;;;;;;4868614;29;21088;-53
2022/06/27 07:44:03;;;;;;;4.43;2.60;;;17.30;99.90;;;;;;4870648;29;20714;-54
2022/06/27 07:46:34;;;;;;;3.93;2.70;;;17.30;99.90;;;;;;4870964;29;20660;-53
2022/06/27 07:49:03;;;;;;;4.67;3.23;;;17.30;99.90;;;;;;4870910;29;20234;-54
2022/06/27 07:51:31;;;;;;;3.30;2.93;;;17.20;99.90;;;;;;4868234;29;20837;-53
2022/06/27 07:53:59;;;;;;;3.67;3.20;;;17.30;99.90;;;;;;4868348;29;20237;-51
2022/06/27 07:56:28;;;;;;;3.20;2.97;;;17.20;99.90;;;;;;4868352;29;20325;-53
2022/06/27 07:59:18;;;;;;;3.33;3.03;;;17.30;99.90;;;;;;4868513;29;20238;-53
2022/06/27 08:01:46;;;;;;;3.47;3.17;;;17.40;99.90;;;;;;4864081;29;20724;-53
2022/06/27 08:04:14;;;;;;;3.80;3.50;;;17.40;99.90;;;;;;4869156;29;20294;-52
2022/06/27 08:06:43;;;;;;;5.43;4.03;;;17.40;99.90;;;;;;4869555;29;20238;-52
2022/06/27 08:09:11;;;;;;;5.00;4.50;;;17.40;99.90;;;;;;4870055;29;21122;-52
2022/06/27 08:11:42;;;;;;;5.07;4.57;;;17.50;99.90;;;;;;4867320;29;20239;-50
2022/06/27 08:14:12;;;;;;;7.90;5.03;;;17.60;99.90;;;;;;4870162;29;20235;-52
2022/06/27 08:16:43;;;;;;;6.07;4.60;;;17.60;99.90;;;;;;4869076;29;20349;-53
2022/06/27 08:19:12;;;;;;;5.57;4.70;;;17.70;99.90;;;;;;4869630;29;20243;-50
2022/06/27 08:21:43;;;;;;;7.43;4.27;;;17.80;99.90;;;;;;4865156;29;20238;-50
2022/06/27 08:24:16;;;;;;;5.03;4.13;;;18.00;99.90;;;;;;4869201;29;20886;-53
2022/06/27 08:26:49;;;;;;;4.57;4.03;;;18.20;99.90;;;;;;4869258;29;20368;-52
2022/06/27 08:29:17;;;;;;;6.03;4.20;;;18.20;99.90;;;;;;4866623;29;20283;-50
2022/06/27 08:31:48;;;;;;;4.40;4.00;;;18.30;99.90;;;;;;4865496;29;20787;-51
2022/06/27 08:34:16;;;;;;;6.97;4.33;;;18.40;99.90;;;;;;4867975;29;20240;-51
2022/06/27 08:36:44;;;;;;;4.83;4.27;;;18.50;99.90;;;;;;4876141;29;20262;-51
2022/06/27 08:39:16;;;;;;;4.33;3.93;;;18.60;99.90;;;;;;4878927;29;20239;-52
2022/06/27 08:41:46;;;;;;;4.83;3.87;;;18.60;99.90;;;;;;4879380;29;20236;-53
2022/06/27 08:44:15;;;;;;;4.33;3.93;;;18.60;99.90;;;;;;4879391;29;20245;-52
2022/06/27 08:46:46;;;;;;;4.20;3.83;;;18.70;99.90;;;;;;4879027;29;20243;-52
2022/06/27 08:49:17;;;;;;;4.80;4.30;;;18.70;99.90;;;;;;4882093;29;20619;-51
2022/06/27 08:51:45;;;;;;;4.70;4.30;;;18.80;99.90;;;;;;4879624;29;20250;-52
2022/06/27 08:54:14;;;;;;;4.43;4.03;;;18.80;99.90;;;;;;4864978;29;20733;-51
2022/06/27 08:56:43;;;;;;;6.03;4.27;;;18.80;99.90;;;;;;4860863;29;20221;-52
2022/06/27 08:59:11;;;;;;;6.27;3.87;;;18.80;99.90;;;;;;4861088;29;20228;-50
2022/06/27 09:01:47;;;;;;;5.60;4.43;;;18.90;99.90;;;;;;4868540;29;20236;-53
2022/06/27 09:04:16;;;;;;;5.03;4.30;;;18.90;99.90;;;;;;4879234;29;20604;-51
2022/06/27 09:06:56;;;;;;;3.93;3.60;;;18.90;99.90;;;;;;4879311;29;20276;-52
2022/06/27 09:09:27;;;;;;;5.93;4.50;;;19.00;99.90;;;;;;4879427;29;20235;-52
2022/06/27 09:11:56;;;;;;;4.37;3.97;;;19.00;99.90;;;;;;4879342;29;20236;-53
2022/06/27 09:14:34;;;;;;;5.43;4.53;;;19.00;99.90;;;;;;4879494;29;20240;-53
2022/06/27 09:17:07;;;;;;;5.30;4.63;;;18.90;99.90;;;;;;4879599;29;20704;-53
2022/06/27 09:19:51;;;;;;;5.37;4.83;;;18.80;99.90;;;;;;4879319;29;20241;-51
2022/06/27 09:22:22;;;;;;;5.93;4.43;;;18.70;99.90;;;;;;4879348;29;20232;-52
2022/06/27 09:25:05;;;;;;;5.27;4.77;;;18.60;99.90;;;;;;4879082;29;20241;-52
2022/06/27 09:27:45;;;;;;;5.97;4.97;;;18.60;99.90;;;;;;4879070;29;20262;-52
2022/06/27 09:30:27;;;;;;;6.73;4.77;;;18.60;99.90;;;;;;4879092;29;20336;-51
2022/06/27 09:32:59;;;;;;;6.50;5.17;;;18.70;99.90;;;;;;4878817;29;20251;-52
2022/06/27 09:35:32;;;;;;;5.70;5.10;;;18.70;99.90;;;;;;4879442;29;20322;-53
2022/06/27 09:38:02;;;;;;;6.57;5.00;;;18.80;99.90;;;;;;4879022;29;20652;-51
2022/06/27 09:40:33;;;;;;;7.43;5.27;;;18.90;99.90;;;;;;4878815;29;20759;-50
2022/06/27 09:43:06;;;;;;;6.23;5.60;;;18.90;99.90;;;;;;4879186;29;20726;-52
2022/06/27 09:45:35;;;;;;;5.97;5.23;;;18.90;99.90;;;;;;4879059;29;20732;-52
2022/06/27 09:48:06;;;;;;;5.97;5.33;;;18.80;99.90;;;;;;4878807;29;20247;-51
2022/06/27 09:50:39;;;;;;;5.90;5.23;;;18.80;99.90;;;;;;4878911;29;20241;-52
2022/06/27 09:53:09;;;;;;;6.30;5.70;;;18.80;99.90;;;;;;4879165;29;20256;-51
2022/06/27 09:55:38;;;;;;;6.20;5.40;;;18.90;99.90;;;;;;4878693;29;20237;-52
2022/06/27 09:58:07;;;;;;;5.47;4.73;;;18.90;99.90;;;;;;4860298;29;20233;-51
2022/06/27 10:00:36;;;;;;;6.17;5.30;;;18.90;99.90;;;;;;4860458;29;20307;-52
2022/06/27 10:03:05;;;;;;;6.67;6.00;;;19.00;99.90;;;;;;4859989;29;20322;-51
2022/06/27 10:05:43;;;;;;;6.87;5.80;;;18.90;99.90;;;;;;4860121;29;20255;-52
2022/06/27 10:08:13;;;;;;;7.20;5.77;;;19.00;99.90;;;;;;4863252;29;20571;-52
2022/06/27 10:11:10;;;;;;;7.00;6.37;;;19.00;99.90;;;;;;4868807;29;20348;-52
2022/06/27 10:13:42;;;;;;;6.63;6.03;;;19.00;99.90;;;;;;4881775;29;20784;-52
2022/06/27 10:16:13;;;;;;;8.20;6.70;;;19.10;99.90;;;;;;4880836;29;20774;-53
2022/06/27 10:19:00;;;;;;;6.73;6.13;;;19.10;99.90;;;;;;4874868;29;20236;-53
2022/06/27 10:21:32;;;;;;;7.47;6.67;;;19.10;99.90;;;;;;4872476;29;20236;-51
2022/06/27 10:24:40;;;;;;;7.10;6.40;;;19.10;99.90;;;;;;4873954;29;20244;-52
2022/06/27 10:27:28;;;;;;;6.77;6.07;;;19.10;99.90;;;;;;4868805;29;20253;-55
2022/06/27 10:29:56;;;;;;;7.57;6.70;;;19.00;99.90;;;;;;4874296;29;20291;-53
2022/06/27 10:32:43;;;;;;;7.60;6.80;;;19.10;99.90;;;;;;4873870;29;20261;-55
2022/06/27 10:35:14;;;;;;;9.27;6.90;;;19.10;99.90;;;;;;4874223;29;20249;-55
2022/06/27 10:37:46;;;;;;;9.60;6.97;;;19.10;99.90;;;;;;4872432;29;20253;-56
2022/06/27 10:40:56;;;;;;;7.80;7.10;;;19.20;99.90;;;;;;4873955;29;20249;-54
2022/06/27 10:43:45;;;;;;;7.57;6.80;;;19.30;99.90;;;;;;4874003;29;20244;-55
2022/06/27 10:46:53;;;;;;;7.77;6.93;;;19.50;99.90;;;;;;4874499;29;20344;-55
2022/06/27 10:49:27;;;;;;;8.03;7.23;;;19.60;99.90;;;;;;4872645;29;20591;-55
2022/06/27 10:52:23;;;;;;;7.80;7.10;;;19.60;99.90;;;;;;4873003;29;20721;-54
2022/06/27 10:54:54;;;;;;;9.13;7.33;;;19.70;99.90;;;;;;4873433;29;20317;-54
2022/06/27 10:57:45;;;;;;;8.77;6.50;;;19.90;99.90;;;;;;4871041;29;20237;-56
2022/06/27 11:00:36;;;;;;;8.33;7.33;;;20.00;99.90;;;;;;4873117;29;20229;-53
2022/06/27 11:03:04;;;;;;;7.87;7.17;;;20.00;99.90;;;;;;4866747;29;20337;-55
2022/06/27 11:05:53;;;;;;;7.83;6.70;;;20.00;99.90;;;;;;4873062;29;20730;-54
2022/06/27 11:08:22;;;;;;;8.50;7.43;;;20.00;99.90;;;;;;4870567;29;20598;-55
2022/06/27 11:10:53;;;;;;;8.23;7.43;;;20.10;99.90;;;;;;4872726;29;20611;-55
2022/06/27 11:13:41;;;;;;;7.77;7.03;;;20.20;99.90;;;;;;4872668;29;20272;-56
2022/06/27 11:16:13;;;;;;;8.47;7.53;;;20.40;99.90;;;;;;4873007;29;20738;-53
2022/06/27 11:18:43;;;;;;;8.87;7.73;;;20.40;99.90;;;;;;4869150;29;20918;-54
2022/06/27 11:21:12;;;;;;;7.97;7.27;;;20.50;99.90;;;;;;4873031;29;20248;-54
2022/06/27 11:23:55;;;;;;;7.57;6.87;;;20.50;99.90;;;;;;4872393;29;20241;-55
2022/06/27 11:26:27;;;;;;;8.43;7.63;;;20.60;99.90;;;;;;4872035;29;20297;-55
2022/06/27 11:31:59;;;;;;;8.27;7.37;;;20.50;99.90;;;;;;4873985;29;20241;-56
2022/06/27 11:34:33;;;;;;;7.93;7.23;;;20.60;99.90;;;;;;4873099;29;21226;-54
2022/06/27 11:37:03;;;;;;;8.30;7.60;;;20.70;99.90;;;;;;4872834;29;20242;-55
2022/06/27 11:39:34;;;;;;;9.50;8.53;;;20.80;99.90;;;;;;4872525;29;20746;-54
2022/06/27 11:42:09;;;;;;;9.00;8.20;;;20.90;99.90;;;;;;4871281;29;20313;-54
2022/06/27 11:44:39;;;;;;;8.37;7.57;;;21.20;99.90;;;;;;4871813;29;20236;-55
2022/06/27 11:47:09;;;;;;;9.60;8.03;;;21.40;99.90;;;;;;4870074;29;20241;-54
2022/06/27 11:49:39;;;;;;;8.70;7.33;;;21.50;99.90;;;;;;4871286;29;20660;-54
2022/06/27 11:52:13;;;;;;;8.80;8.00;;;21.60;99.90;;;;;;4872129;29;20224;-54
2022/06/27 11:54:42;;;;;;;9.83;8.93;;;21.50;99.90;;;;;;4873168;29;20234;-55
2022/06/27 11:57:26;;;;;;;10.70;9.70;;;21.50;99.90;;;;;;4871174;29;20244;-54
2022/06/27 11:59:55;;;;;;;9.33;8.53;;;21.50;99.90;;;;;;4872131;29;20248;-54
2022/06/27 12:02:29;;;;;;;9.03;8.20;;;21.70;99.90;;;;;;4872111;29;21481;-56
2022/06/27 12:05:05;;;;;;;8.87;8.00;;;21.90;99.90;;;;;;4872741;29;20594;-53
2022/06/27 12:07:48;;;;;;;9.53;8.63;;;22.20;99.90;;;;;;4868680;29;21343;-55
2022/06/27 12:10:16;;;;;;;10.10;9.20;;;22.30;99.90;;;;;;4871500;29;20770;-57
2022/06/27 12:12:46;;;;;;;8.93;8.03;;;22.20;99.90;;;;;;4871753;29;20242;-55
2022/06/27 12:15:21;;;;;;;8.87;8.07;;;22.20;99.90;;;;;;4871842;29;20663;-53
2022/06/27 12:17:56;;;;;;;9.13;8.23;;;22.20;99.90;;;;;;4869141;29;20591;-54
2022/06/27 12:20:25;;;;;;;9.40;8.50;;;22.10;99.90;;;;;;4871143;29;20300;-54
2022/06/27 12:22:53;;;;;;;9.83;8.87;;;22.10;99.90;;;;;;4871031;29;20245;-53
2022/06/27 12:25:23;;;;;;;10.37;9.47;;;22.20;99.90;;;;;;4872138;29;20240;-55
2022/06/27 12:27:52;;;;;;;9.30;8.30;;;22.30;99.90;;;;;;4870183;29;20234;-53
2022/06/27 12:30:20;;;;;;;9.67;8.67;;;22.40;99.90;;;;;;4871797;29;20585;-53
2022/06/27 12:32:51;;;;;;;9.33;8.47;;;22.50;99.90;;;;;;4871972;29;20580;-54
2022/06/27 12:35:27;;;;;;;8.73;7.90;;;22.40;99.90;;;;;;4872282;29;20241;-53
2022/06/27 12:37:59;;;;;;;10.10;9.20;;;22.50;99.90;;;;;;4869024;29;20325;-54
2022/06/27 12:40:28;;;;;;;9.33;8.50;;;22.40;99.90;;;;;;4870894;29;20244;-56
2022/06/27 12:43:05;;;;;;;8.63;7.83;;;22.50;99.90;;;;;;4871683;29;20238;-54
2022/06/27 12:45:33;;;;;;;9.07;8.27;;;22.40;99.90;;;;;;4871008;29;20245;-56
2022/06/27 12:48:05;;;;;;;8.50;7.80;;;22.40;99.90;;;;;;4868721;29;20249;-54
2022/06/27 12:50:33;;;;;;;10.10;9.10;;;22.20;99.90;;;;;;4871310;29;20911;-54
2022/06/27 12:53:02;;;;;;;9.67;8.77;;;22.00;99.90;;;;;;4872054;29;20269;-53
2022/06/27 12:55:30;;;;;;;8.53;7.83;;;22.10;99.90;;;;;;4872053;29;20290;-55
2022/06/27 12:57:58;;;;;;;8.07;7.43;;;22.20;99.90;;;;;;4869586;29;20361;-53
2022/06/27 13:00:28;;;;;;;9.03;8.13;;;22.20;99.90;;;;;;4870958;29;20238;-53
2022/06/27 13:02:56;;;;;;;8.57;7.87;;;22.20;99.90;;;;;;4870122;29;20246;-55
2022/06/27 13:05:31;;;;;;;9.10;8.17;;;22.10;99.90;;;;;;4870503;29;20252;-54
2022/06/27 13:08:00;;;;;;;8.67;7.87;;;22.00;99.90;;;;;;4867995;29;20256;-54
2022/06/27 13:10:28;;;;;;;9.03;8.23;;;21.90;99.90;;;;;;4870377;29;20285;-55
2022/06/27 13:12:57;;;;;;;7.60;6.90;;;21.80;99.90;;;;;;4870207;29;20818;-55
2022/06/27 13:15:26;;;;;;;9.07;8.23;;;21.90;99.90;;;;;;4870578;29;20328;-55